Snow/Ice From: 16-12-2017 16:00 Until: 17-12-2017 16:00 warning for: Snow/Ice Level: Yellow info button

Although rather usual in this region, locally or potentially dangerous phenomena are expected. (such as local winds, summer thunderstorms, rising streams or high waves) Be aware and pay attention to the latest weather updates, especially if you carry out activities exposed to weather or close to a stream or shoreline. 


Meteo18 Weather Cam more information Meteo18 Weather Cam


Thunder radar more information blitzortung!


warning for Snow/Ice more information rain snow radar


Visit our other weather sites:

Template documentation
and downloads

And another site



Weather Underground History page Text

Daily Summary for June 12, 2017 Units:  Metric    English   Both
« Previous Day
Next Day »
Daily Weekly Monthly Yearly Custom
  High: Low: Average:
Temperature: 24.8 °C 15.8 °C 20.5 °C
Dew Point: 17.2 °C 10.5 °C 12.9 °C
Humidity: 87 % 42 % 63 %
Wind Speed: 14.5 km/h 0.0 km/h 4.2 km/h
Wind Gust: 19.3 km/h - -
Wind:- - West
Pressure: 1022.2 hPa 1018.2 hPa -
Precipitation: 0.0 mm    
Historical Graphs
 
 
Tabular Data for June 12, 2017
Time Temperature Dew Point Pressure Wind Wind Speed Wind Gust Humidity Rainfall Rate (Hourly)
00:02 23.2 °C 17.2 °C 1018.2 hPa NW 4.8 km/h 11.3 km/h 69 % 0.0 mm
00:12 23.2 °C 17.2 °C 1018.2 hPa NNW 1.6 km/h 9.7 km/h 69 % 0.0 mm
00:17 23.2 °C 17.0 °C 1018.2 hPa NNW 3.2 km/h 9.7 km/h 68 % 0.0 mm
00:22 23.1 °C 16.9 °C 1018.2 hPa WNW 3.2 km/h 9.7 km/h 68 % 0.0 mm
00:32 23.0 °C 16.1 °C 1018.2 hPa North 9.7 km/h 11.3 km/h 65 % 0.0 mm
00:37 23.1 °C 15.2 °C 1018.5 hPa WNW 11.3 km/h 12.9 km/h 61 % 0.0 mm
00:42 23.2 °C 14.7 °C 1018.5 hPa North 9.7 km/h 17.7 km/h 59 % 0.0 mm
00:47 23.1 °C 14.6 °C 1018.5 hPa NW 4.8 km/h 17.7 km/h 59 % 0.0 mm
00:52 22.9 °C 14.5 °C 1018.5 hPa NW 1.6 km/h 17.7 km/h 59 % 0.0 mm
00:57 22.8 °C 14.6 °C 1018.5 hPa NNW 6.4 km/h 12.9 km/h 60 % 0.0 mm
01:02 22.7 °C 14.5 °C 1018.5 hPa NNW 3.2 km/h 14.5 km/h 60 % 0.0 mm
01:12 22.4 °C 14.5 °C 1018.5 hPa WNW 4.8 km/h 14.5 km/h 61 % 0.0 mm
01:17 22.3 °C 14.7 °C 1018.5 hPa WNW 6.4 km/h 12.9 km/h 62 % 0.0 mm
01:22 22.3 °C 14.7 °C 1018.5 hPa WNW 1.6 km/h 12.9 km/h 62 % 0.0 mm
01:27 22.1 °C 14.5 °C 1018.5 hPa NW 4.8 km/h 14.5 km/h 62 % 0.0 mm
01:32 22.1 °C 14.7 °C 1018.5 hPa NW 3.2 km/h 14.5 km/h 63 % 0.0 mm
01:37 22.1 °C 14.7 °C 1018.5 hPa NNW 3.2 km/h 12.9 km/h 63 % 0.0 mm
01:42 21.9 °C 14.8 °C 1018.5 hPa North 4.8 km/h 12.9 km/h 64 % 0.0 mm
01:47 21.8 °C 15.2 °C 1018.5 hPa NNE 1.6 km/h 11.3 km/h 66 % 0.0 mm
01:52 21.6 °C 15.2 °C 1018.5 hPa North 3.2 km/h 11.3 km/h 67 % 0.0 mm
01:57 21.4 °C 15.0 °C 1018.5 hPa North 3.2 km/h 9.7 km/h 67 % 0.0 mm
02:02 21.4 °C 15.0 °C 1018.5 hPa NNW 1.6 km/h 9.7 km/h 67 % 0.0 mm
02:07 21.4 °C 15.0 °C 1018.5 hPa North 3.2 km/h 6.4 km/h 67 % 0.0 mm
02:12 21.4 °C 15.0 °C 1018.5 hPa Calm   8.0 km/h 67 % 0.0 mm
02:17 21.4 °C 15.0 °C 1018.5 hPa North 1.6 km/h 8.0 km/h 67 % 0.0 mm
02:22 21.3 °C 14.9 °C 1018.5 hPa North 3.2 km/h 8.0 km/h 67 % 0.0 mm
02:32 21.3 °C 15.2 °C 1018.8 hPa Calm   8.0 km/h 68 % 0.0 mm
02:37 21.2 °C 15.1 °C 1018.8 hPa NW 1.6 km/h 8.0 km/h 68 % 0.0 mm
02:47 20.9 °C 15.2 °C 1018.8 hPa NW 1.6 km/h 4.8 km/h 70 % 0.0 mm
02:52 20.9 °C 15.2 °C 1018.8 hPa Calm   6.4 km/h 70 % 0.0 mm
02:57 20.7 °C 15.3 °C 1018.8 hPa WNW 3.2 km/h 6.4 km/h 71 % 0.0 mm
03:02 20.6 °C 15.4 °C 1018.8 hPa WNW 3.2 km/h 6.4 km/h 72 % 0.0 mm
03:12 20.4 °C 15.4 °C 1018.8 hPa Calm   4.8 km/h 73 % 0.0 mm
03:17 20.3 °C 15.3 °C 1018.8 hPa Calm   4.8 km/h 73 % 0.0 mm
03:22 20.3 °C 15.5 °C 1018.8 hPa Calm   4.8 km/h 74 % 0.0 mm
03:32 20.2 °C 15.6 °C 1019.2 hPa Calm   4.8 km/h 75 % 0.0 mm
03:37 20.1 °C 15.7 °C 1019.2 hPa West 1.6 km/h 4.8 km/h 76 % 0.0 mm
03:42 20.1 °C 15.7 °C 1019.2 hPa Calm   4.8 km/h 76 % 0.0 mm
03:47 20.0 °C 15.8 °C 1019.2 hPa Calm   4.8 km/h 77 % 0.0 mm
03:52 20.0 °C 15.8 °C 1019.2 hPa WNW 4.8 km/h 6.4 km/h 77 % 0.0 mm
03:57 20.0 °C 15.8 °C 1019.2 hPa NW 1.6 km/h 8.0 km/h 77 % 0.0 mm
04:02 20.0 °C 15.8 °C 1019.2 hPa West 1.6 km/h 8.0 km/h 77 % 0.0 mm
04:07 19.9 °C 15.9 °C 1019.5 hPa NW 3.2 km/h 9.7 km/h 78 % 0.0 mm
04:17 19.7 °C 16.0 °C 1019.5 hPa North 1.6 km/h 9.7 km/h 79 % 0.0 mm
04:22 19.6 °C 16.1 °C 1019.5 hPa NW 1.6 km/h 9.7 km/h 80 % 0.0 mm
04:27 19.5 °C 16.0 °C 1019.5 hPa NNW 1.6 km/h 6.4 km/h 80 % 0.0 mm
04:32 19.4 °C 16.1 °C 1019.5 hPa NNW 6.4 km/h 9.7 km/h 81 % 0.0 mm
04:37 19.3 °C 16.0 °C 1019.5 hPa North 6.4 km/h 14.5 km/h 81 % 0.0 mm
04:42 19.2 °C 16.1 °C 1019.5 hPa Calm   14.5 km/h 82 % 0.0 mm
04:47 19.1 °C 16.1 °C 1019.5 hPa Calm   11.3 km/h 83 % 0.0 mm
04:52 19.0 °C 16.0 °C 1019.9 hPa Calm   11.3 km/h 83 % 0.0 mm
04:57 18.9 °C 16.1 °C 1019.5 hPa WNW 3.2 km/h 6.4 km/h 84 % 0.0 mm
05:02 18.7 °C 15.9 °C 1019.9 hPa NW 6.4 km/h 6.4 km/h 84 % 0.0 mm
05:07 18.6 °C 16.0 °C 1019.5 hPa WNW 4.8 km/h 12.9 km/h 85 % 0.0 mm
05:17 18.3 °C 15.9 °C 1019.9 hPa West 4.8 km/h 12.9 km/h 86 % 0.0 mm
05:22 18.3 °C 15.9 °C 1019.9 hPa NW 1.6 km/h 12.9 km/h 86 % 0.0 mm
05:27 18.2 °C 16.0 °C 1019.9 hPa West 3.2 km/h 9.7 km/h 87 % 0.0 mm
05:32 18.1 °C 15.9 °C 1019.9 hPa NNW 1.6 km/h 9.7 km/h 87 % 0.0 mm
05:37 17.9 °C 15.7 °C 1019.9 hPa Calm   9.7 km/h 87 % 0.0 mm
05:42 17.9 °C 15.7 °C 1019.9 hPa NW 3.2 km/h 9.7 km/h 87 % 0.0 mm
05:47 17.8 °C 15.6 °C 1019.9 hPa WNW 1.6 km/h 9.7 km/h 87 % 0.0 mm
05:52 17.8 °C 15.6 °C 1019.9 hPa NW 3.2 km/h 9.7 km/h 87 % 0.0 mm
05:57 17.7 °C 15.5 °C 1019.9 hPa WNW 1.6 km/h 12.9 km/h 87 % 0.0 mm
06:02 17.7 °C 15.5 °C 1019.9 hPa NW 8.0 km/h 12.9 km/h 87 % 0.0 mm
06:12 17.7 °C 15.5 °C 1019.9 hPa West 1.6 km/h 11.3 km/h 87 % 0.0 mm
06:17 17.6 °C 15.4 °C 1019.9 hPa NW 8.0 km/h 16.1 km/h 87 % 0.0 mm
06:22 17.5 °C 15.1 °C 1019.9 hPa NNW 6.4 km/h 16.1 km/h 86 % 0.0 mm
06:27 17.4 °C 15.0 °C 1019.9 hPa NW 4.8 km/h 16.1 km/h 86 % 0.0 mm
06:37 17.3 °C 14.8 °C 1020.2 hPa Calm   11.3 km/h 85 % 0.0 mm
06:42 17.3 °C 14.6 °C 1020.2 hPa NNE 4.8 km/h 12.9 km/h 84 % 0.0 mm
06:47 17.2 °C 14.5 °C 1020.2 hPa NNW 4.8 km/h 12.9 km/h 84 % 0.0 mm
06:52 17.2 °C 14.5 °C 1020.2 hPa NNW 4.8 km/h 12.9 km/h 84 % 0.0 mm
06:57 17.1 °C 14.2 °C 1020.2 hPa NNW 8.0 km/h 12.9 km/h 83 % 0.0 mm
07:02 17.1 °C 14.0 °C 1020.2 hPa NNW 11.3 km/h 12.9 km/h 82 % 0.0 mm
07:07 17.1 °C 14.0 °C 1020.2 hPa North 1.6 km/h 12.9 km/h 82 % 0.0 mm
07:12 17.1 °C 14.0 °C 1020.2 hPa NNW 1.6 km/h 12.9 km/h 82 % 0.0 mm
07:17 17.2 °C 13.9 °C 1020.5 hPa WNW 3.2 km/h 12.9 km/h 81 % 0.0 mm
07:27 17.1 °C 13.6 °C 1020.5 hPa WNW 1.6 km/h 8.0 km/h 80 % 0.0 mm
07:32 16.9 °C 13.2 °C 1020.5 hPa NW 4.8 km/h 8.0 km/h 79 % 0.0 mm
07:42 17.1 °C 12.8 °C 1020.9 hPa NNE 4.8 km/h 9.7 km/h 76 % 0.0 mm
07:47 17.2 °C 12.7 °C 1020.5 hPa North 9.7 km/h 16.1 km/h 75 % 0.0 mm
07:57 17.4 °C 13.3 °C 1020.9 hPa North 9.7 km/h 16.1 km/h 77 % 0.0 mm
08:02 17.3 °C 13.4 °C 1020.9 hPa NW 4.8 km/h 16.1 km/h 78 % 0.0 mm
08:07 17.3 °C 13.4 °C 1020.9 hPa NW 9.7 km/h 17.7 km/h 78 % 0.0 mm
08:12 17.2 °C 13.3 °C 1021.2 hPa WNW 4.8 km/h 17.7 km/h 78 % 0.0 mm
08:17 17.1 °C 13.2 °C 1021.2 hPa NNW 3.2 km/h 16.1 km/h 78 % 0.0 mm
08:22 17.0 °C 12.9 °C 1021.2 hPa NW 4.8 km/h 16.1 km/h 77 % 0.0 mm
08:32 17.0 °C 12.9 °C 1021.2 hPa NW 11.3 km/h 17.7 km/h 77 % 0.0 mm
08:37 17.0 °C 12.7 °C 1021.2 hPa NNW 4.8 km/h 17.7 km/h 76 % 0.0 mm
08:42 17.1 °C 12.8 °C 1021.2 hPa Calm   17.7 km/h 76 % 0.0 mm
08:47 17.1 °C 12.6 °C 1021.2 hPa NNE 3.2 km/h 16.1 km/h 75 % 0.0 mm
08:52 17.1 °C 12.4 °C 1021.6 hPa NNW 3.2 km/h 16.1 km/h 74 % 0.0 mm
08:57 17.0 °C 12.5 °C 1021.6 hPa North 4.8 km/h 14.5 km/h 75 % 0.0 mm
09:02 17.0 °C 12.5 °C 1021.6 hPa North 1.6 km/h 14.5 km/h 75 % 0.0 mm
09:12 17.2 °C 12.3 °C 1021.6 hPa NNW 1.6 km/h 12.9 km/h 73 % 0.0 mm
09:17 17.6 °C 12.7 °C 1021.6 hPa NNW 11.3 km/h 17.7 km/h 73 % 0.0 mm
09:22 17.7 °C 12.4 °C 1021.6 hPa NNE 9.7 km/h 17.7 km/h 71 % 0.0 mm
09:32 17.9 °C 12.8 °C 1021.6 hPa SW 3.2 km/h 16.1 km/h 72 % 0.0 mm
09:37 17.9 °C 12.6 °C 1021.6 hPa North 4.8 km/h 16.1 km/h 71 % 0.0 mm
09:42 18.0 °C 12.7 °C 1021.6 hPa NNW 8.0 km/h 16.1 km/h 71 % 0.0 mm
09:47 18.1 °C 12.3 °C 1021.6 hPa WNW 6.4 km/h 19.3 km/h 69 % 0.0 mm
09:52 18.1 °C 11.9 °C 1021.6 hPa NW 4.8 km/h 19.3 km/h 67 % 0.0 mm
10:02 18.4 °C 11.9 °C 1021.6 hPa NW 12.9 km/h 17.7 km/h 66 % 0.0 mm
10:07 18.3 °C 12.1 °C 1021.6 hPa NNW 8.0 km/h 17.7 km/h 67 % 0.0 mm
10:12 18.4 °C 12.6 °C 1021.6 hPa NNW 4.8 km/h 17.7 km/h 69 % 0.0 mm
10:17 18.6 °C 12.4 °C 1021.6 hPa North 12.9 km/h 17.7 km/h 67 % 0.0 mm
10:22 18.6 °C 12.4 °C 1021.6 hPa NW 9.7 km/h 17.7 km/h 67 % 0.0 mm
10:32 18.7 °C 12.4 °C 1021.6 hPa WNW 3.2 km/h 16.1 km/h 67 % 0.0 mm
10:37 18.8 °C 12.8 °C 1021.9 hPa North 11.3 km/h 14.5 km/h 68 % 0.0 mm
10:42 18.9 °C 12.6 °C 1021.9 hPa NNE 6.4 km/h 14.5 km/h 67 % 0.0 mm
10:47 19.0 °C 12.3 °C 1021.9 hPa NW 4.8 km/h 16.1 km/h 65 % 0.0 mm
10:52 19.1 °C 11.9 °C 1021.9 hPa NNW 8.0 km/h 16.1 km/h 63 % 0.0 mm
10:57 19.0 °C 11.8 °C 1021.9 hPa NW 4.8 km/h 16.1 km/h 63 % 0.0 mm
11:02 18.9 °C 11.2 °C 1021.9 hPa NNW 11.3 km/h 16.1 km/h 61 % 0.0 mm
11:07 19.1 °C 11.6 °C 1021.9 hPa NW 4.8 km/h 14.5 km/h 62 % 0.0 mm
11:12 19.3 °C 11.8 °C 1021.9 hPa NW 8.0 km/h 14.5 km/h 62 % 0.0 mm
11:22 19.8 °C 12.3 °C 1021.9 hPa NE 3.2 km/h 14.5 km/h 62 % 0.0 mm
11:32 19.7 °C 12.0 °C 1021.9 hPa NNE 6.4 km/h 14.5 km/h 61 % 0.0 mm
11:42 19.8 °C 12.3 °C 1021.9 hPa NNE 1.6 km/h 14.5 km/h 62 % 0.0 mm
11:47 19.9 °C 11.9 °C 1021.9 hPa NW 1.6 km/h 16.1 km/h 60 % 0.0 mm
11:52 20.2 °C 12.4 °C 1021.9 hPa NW 8.0 km/h 16.1 km/h 61 % 0.0 mm
12:02 20.3 °C 12.3 °C 1022.2 hPa West 9.7 km/h 14.5 km/h 60 % 0.0 mm
12:12 19.9 °C 12.2 °C 1022.2 hPa NNW 4.8 km/h 16.1 km/h 61 % 0.0 mm
12:17 20.2 °C 12.4 °C 1022.2 hPa North 4.8 km/h 16.1 km/h 61 % 0.0 mm
12:22 20.2 °C 11.9 °C 1022.2 hPa West 1.6 km/h 16.1 km/h 59 % 0.0 mm
12:32 20.7 °C 12.7 °C 1022.2 hPa NW 4.8 km/h 17.7 km/h 60 % 0.0 mm
12:37 20.8 °C 12.5 °C 1022.2 hPa West 8.0 km/h 16.1 km/h 59 % 0.0 mm
12:42 20.7 °C 12.4 °C 1022.2 hPa NW 14.5 km/h 16.1 km/h 59 % 0.0 mm
12:47 20.4 °C 12.1 °C 1021.9 hPa Calm   17.7 km/h 59 % 0.0 mm
12:52 20.8 °C 12.5 °C 1021.9 hPa West 3.2 km/h 17.7 km/h 59 % 0.0 mm
12:57 20.9 °C 12.6 °C 1021.9 hPa NW 6.4 km/h 17.7 km/h 59 % 0.0 mm
13:02 21.1 °C 12.2 °C 1021.9 hPa NNW 8.0 km/h 17.7 km/h 57 % 0.0 mm
13:12 21.6 °C 12.7 °C 1021.9 hPa NNE 3.2 km/h 16.1 km/h 57 % 0.0 mm
13:17 21.3 °C 12.2 °C 1021.9 hPa Calm   17.7 km/h 56 % 0.0 mm
13:22 21.5 °C 12.9 °C 1021.9 hPa NNW 6.4 km/h 17.7 km/h 58 % 0.0 mm
13:27 21.6 °C 13.2 °C 1021.9 hPa NNW 4.8 km/h 17.7 km/h 59 % 0.0 mm
13:32 21.8 °C 12.4 °C 1021.9 hPa WNW 9.7 km/h 12.9 km/h 55 % 0.0 mm
13:37 21.4 °C 12.5 °C 1021.6 hPa NNW 3.2 km/h 12.9 km/h 57 % 0.0 mm
13:42 21.6 °C 12.4 °C 1021.6 hPa WNW 4.8 km/h 12.9 km/h 56 % 0.0 mm
13:47 21.6 °C 11.9 °C 1021.6 hPa NNE 3.2 km/h 14.5 km/h 54 % 0.0 mm
13:52 22.0 °C 12.5 °C 1021.6 hPa NW 4.8 km/h 14.5 km/h 55 % 0.0 mm
13:57 21.7 °C 12.0 °C 1021.6 hPa North 4.8 km/h 16.1 km/h 54 % 0.0 mm
14:02 21.8 °C 12.4 °C 1021.6 hPa NW 6.4 km/h 16.1 km/h 55 % 0.0 mm
14:07 22.2 °C 11.9 °C 1021.6 hPa WSW 4.8 km/h 16.1 km/h 52 % 0.0 mm
14:12 22.4 °C 11.8 °C 1021.6 hPa WSW 9.7 km/h 12.9 km/h 51 % 0.0 mm
14:17 22.2 °C 11.6 °C 1021.6 hPa SW 6.4 km/h 16.1 km/h 51 % 0.0 mm
14:22 22.2 °C 10.7 °C 1021.6 hPa West 4.8 km/h 16.1 km/h 48 % 0.0 mm
14:32 22.6 °C 12.2 °C 1021.6 hPa NW 3.2 km/h 12.9 km/h 52 % 0.0 mm
14:37 22.7 °C 12.0 °C 1021.6 hPa WNW 9.7 km/h 16.1 km/h 51 % 0.0 mm
14:42 22.2 °C 11.3 °C 1021.6 hPa West 1.6 km/h 19.3 km/h 50 % 0.0 mm
14:52 22.6 °C 11.9 °C 1021.2 hPa NE 3.2 km/h 19.3 km/h 51 % 0.0 mm
14:57 22.7 °C 11.7 °C 1021.2 hPa West 6.4 km/h 12.9 km/h 50 % 0.0 mm
15:02 22.9 °C 11.9 °C 1021.2 hPa NNE 11.3 km/h 16.1 km/h 50 % 0.0 mm
15:07 23.0 °C 11.4 °C 1021.2 hPa WNW 6.4 km/h 16.1 km/h 48 % 0.0 mm
15:12 22.9 °C 11.6 °C 1021.2 hPa West 1.6 km/h 14.5 km/h 49 % 0.0 mm
15:22 23.1 °C 11.5 °C 1021.2 hPa WSW 4.8 km/h 14.5 km/h 48 % 0.0 mm
15:27 23.2 °C 11.6 °C 1021.2 hPa WNW 4.8 km/h 14.5 km/h 48 % 0.0 mm
15:32 23.1 °C 10.8 °C 1021.2 hPa SSE 4.8 km/h 14.5 km/h 46 % 0.0 mm
15:42 23.7 °C 11.4 °C 1020.9 hPa WNW 1.6 km/h 11.3 km/h 46 % 0.0 mm
15:52 23.7 °C 10.7 °C 1020.9 hPa SW 1.6 km/h 12.9 km/h 44 % 0.0 mm
15:57 23.7 °C 11.4 °C 1020.9 hPa WSW 6.4 km/h 12.9 km/h 46 % 0.0 mm
16:02 23.5 °C 10.9 °C 1020.9 hPa NNW 3.2 km/h 12.9 km/h 45 % 0.0 mm
16:12 23.8 °C 11.8 °C 1020.9 hPa West 3.2 km/h 11.3 km/h 47 % 0.0 mm
16:17 23.6 °C 11.0 °C 1020.9 hPa Calm   14.5 km/h 45 % 0.0 mm
16:22 23.7 °C 11.1 °C 1020.9 hPa WNW 6.4 km/h 14.5 km/h 45 % 0.0 mm
16:32 23.8 °C 10.8 °C 1020.9 hPa NW 1.6 km/h 11.3 km/h 44 % 0.0 mm
16:37 23.8 °C 10.8 °C 1020.9 hPa WNW 6.4 km/h 14.5 km/h 44 % 0.0 mm
16:42 23.7 °C 10.7 °C 1020.9 hPa West 6.4 km/h 14.5 km/h 44 % 0.0 mm
16:47 23.8 °C 10.5 °C 1020.5 hPa Calm   12.9 km/h 43 % 0.0 mm
16:52 24.3 °C 10.9 °C 1020.5 hPa WNW 8.0 km/h 12.9 km/h 43 % 0.0 mm
16:57 24.5 °C 11.1 °C 1020.5 hPa NW 3.2 km/h 14.5 km/h 43 % 0.0 mm
17:02 24.4 °C 11.0 °C 1020.5 hPa WNW 3.2 km/h 14.5 km/h 43 % 0.0 mm
17:12 24.2 °C 10.8 °C 1020.5 hPa North 3.2 km/h 14.5 km/h 43 % 0.0 mm
17:17 23.9 °C 10.6 °C 1020.2 hPa ENE 3.2 km/h 12.9 km/h 43 % 0.0 mm
17:22 23.9 °C 10.9 °C 1020.5 hPa NNW 6.4 km/h 12.9 km/h 44 % 0.0 mm
17:32 24.3 °C 10.6 °C 1020.5 hPa SSW 3.2 km/h 12.9 km/h 42 % 0.0 mm
17:42 24.7 °C 11.3 °C 1020.2 hPa Calm   6.4 km/h 43 % 0.0 mm
17:47 24.8 °C 11.4 °C 1020.2 hPa NNW 6.4 km/h 8.0 km/h 43 % 0.0 mm
17:52 24.6 °C 11.2 °C 1020.2 hPa WSW 4.8 km/h 8.0 km/h 43 % 0.0 mm
17:57 24.4 °C 11.4 °C 1020.2 hPa WNW 6.4 km/h 8.0 km/h 44 % 0.0 mm
18:02 24.2 °C 11.5 °C 1020.2 hPa WNW 3.2 km/h 12.9 km/h 45 % 0.0 mm
18:07 24.3 °C 11.9 °C 1020.2 hPa WNW 9.7 km/h 12.9 km/h 46 % 0.0 mm
18:12 24.1 °C 11.4 °C 1020.2 hPa West 4.8 km/h 14.5 km/h 45 % 0.0 mm
18:17 24.1 °C 11.1 °C 1020.2 hPa Calm   14.5 km/h 44 % 0.0 mm
18:22 24.2 °C 11.8 °C 1020.2 hPa WNW 6.4 km/h 14.5 km/h 46 % 0.0 mm
18:27 24.1 °C 11.1 °C 1020.2 hPa West 3.2 km/h 14.5 km/h 44 % 0.0 mm
18:32 24.3 °C 11.9 °C 1020.2 hPa WNW 8.0 km/h 14.5 km/h 46 % 0.0 mm
18:42 24.1 °C 11.8 °C 1020.2 hPa WNW 4.8 km/h 12.9 km/h 46 % 0.0 mm
18:47 24.4 °C 11.7 °C 1019.9 hPa Calm   12.9 km/h 45 % 0.0 mm
18:52 24.3 °C 11.6 °C 1019.9 hPa WNW 3.2 km/h 12.9 km/h 45 % 0.0 mm
18:57 24.2 °C 12.5 °C 1019.9 hPa WNW 1.6 km/h 12.9 km/h 48 % 0.0 mm
19:02 24.1 °C 12.1 °C 1019.9 hPa WNW 6.4 km/h 12.9 km/h 47 % 0.0 mm
19:07 24.2 °C 11.8 °C 1019.9 hPa NW 3.2 km/h 12.9 km/h 46 % 0.0 mm
19:12 24.1 °C 11.4 °C 1019.9 hPa NNE 6.4 km/h 12.9 km/h 45 % 0.0 mm
19:17 24.1 °C 11.8 °C 1019.9 hPa WNW 3.2 km/h 12.9 km/h 46 % 0.0 mm
19:22 24.2 °C 11.5 °C 1019.9 hPa WNW 1.6 km/h 9.7 km/h 45 % 0.0 mm
19:27 23.8 °C 11.5 °C 1019.9 hPa North 8.0 km/h 9.7 km/h 46 % 0.0 mm
19:32 23.5 °C 11.2 °C 1019.9 hPa NNW 4.8 km/h 16.1 km/h 46 % 0.0 mm
19:37 23.6 °C 11.6 °C 1019.9 hPa WSW 1.6 km/h 16.1 km/h 47 % 0.0 mm
19:42 23.7 °C 11.4 °C 1019.9 hPa NW 3.2 km/h 16.1 km/h 46 % 0.0 mm
19:47 23.9 °C 11.2 °C 1019.9 hPa NNW 4.8 km/h 8.0 km/h 45 % 0.0 mm
19:52 23.6 °C 11.0 °C 1019.9 hPa NNW 9.7 km/h 9.7 km/h 45 % 0.0 mm
19:57 23.4 °C 11.1 °C 1019.9 hPa NW 1.6 km/h 11.3 km/h 46 % 0.0 mm
20:02 23.6 °C 11.3 °C 1019.9 hPa NW 3.2 km/h 11.3 km/h 46 % 0.0 mm
20:07 23.6 °C 11.3 °C 1019.9 hPa Calm   9.7 km/h 46 % 0.0 mm
20:12 23.7 °C 11.4 °C 1019.9 hPa West 1.6 km/h 6.4 km/h 46 % 0.0 mm
20:17 23.6 °C 11.0 °C 1019.9 hPa NNW 3.2 km/h 6.4 km/h 45 % 0.0 mm
20:22 23.4 °C 11.4 °C 1019.9 hPa North 4.8 km/h 6.4 km/h 47 % 0.0 mm
20:32 22.7 °C 11.7 °C 1019.9 hPa NNE 3.2 km/h 8.0 km/h 50 % 0.0 mm
20:37 22.4 °C 12.1 °C 1019.9 hPa ENE 3.2 km/h 8.0 km/h 52 % 0.0 mm
20:42 22.0 °C 12.0 °C 1019.9 hPa NNE 3.2 km/h 9.7 km/h 53 % 0.0 mm
20:52 21.6 °C 11.6 °C 1019.9 hPa NNW 1.6 km/h 11.3 km/h 53 % 0.0 mm
20:57 21.5 °C 11.5 °C 1019.9 hPa NNW 4.8 km/h 11.3 km/h 53 % 0.0 mm
21:07 21.2 °C 11.5 °C 1019.9 hPa NNW 3.2 km/h 11.3 km/h 54 % 0.0 mm
21:12 21.1 °C 11.7 °C 1019.9 hPa North 1.6 km/h 11.3 km/h 55 % 0.0 mm
21:17 20.9 °C 11.8 °C 1019.9 hPa NNW 1.6 km/h 6.4 km/h 56 % 0.0 mm
21:22 20.6 °C 11.5 °C 1019.9 hPa NNW 3.2 km/h 6.4 km/h 56 % 0.0 mm
21:27 20.3 °C 11.5 °C 1019.9 hPa Calm   6.4 km/h 57 % 0.0 mm
21:32 19.9 °C 11.1 °C 1019.9 hPa NNW 4.8 km/h 6.4 km/h 57 % 0.0 mm
21:42 19.3 °C 11.1 °C 1019.9 hPa North 3.2 km/h 6.4 km/h 59 % 0.0 mm
21:47 19.0 °C 11.1 °C 1019.9 hPa NNW 1.6 km/h 6.4 km/h 60 % 0.0 mm
21:52 18.8 °C 11.1 °C 1019.9 hPa NNW 3.2 km/h 6.4 km/h 61 % 0.0 mm
21:57 18.6 °C 11.2 °C 1019.9 hPa NNW 1.6 km/h 4.8 km/h 62 % 0.0 mm
22:02 18.3 °C 10.9 °C 1020.2 hPa North 1.6 km/h 3.2 km/h 62 % 0.0 mm
22:12 18.1 °C 11.2 °C 1020.2 hPa North 1.6 km/h 6.4 km/h 64 % 0.0 mm
22:22 17.8 °C 11.4 °C 1020.2 hPa North 3.2 km/h 6.4 km/h 66 % 0.0 mm
22:32 17.4 °C 11.2 °C 1020.5 hPa Calm   3.2 km/h 67 % 0.0 mm
22:42 17.0 °C 11.3 °C 1020.5 hPa Calm   1.6 km/h 69 % 0.0 mm
22:47 16.8 °C 11.3 °C 1020.5 hPa NE 4.8 km/h 4.8 km/h 70 % 0.0 mm
22:52 16.7 °C 11.4 °C 1020.5 hPa NNW 1.6 km/h 4.8 km/h 71 % 0.0 mm
23:02 16.2 °C 11.4 °C 1020.5 hPa NNE 4.8 km/h 8.0 km/h 73 % 0.0 mm
23:07 16.2 °C 11.4 °C 1020.5 hPa NNW 3.2 km/h 8.0 km/h 73 % 0.0 mm
23:12 16.2 °C 11.4 °C 1020.5 hPa NNW 3.2 km/h 9.7 km/h 73 % 0.0 mm
23:17 16.1 °C 11.3 °C 1020.5 hPa North 3.2 km/h 9.7 km/h 73 % 0.0 mm
23:22 16.1 °C 11.3 °C 1020.2 hPa NE 4.8 km/h 6.4 km/h 73 % 0.0 mm
23:32 15.9 °C 11.1 °C 1020.2 hPa NNE 3.2 km/h 9.7 km/h 73 % 0.0 mm
23:37 15.8 °C 11.2 °C 1020.2 hPa Calm   9.7 km/h 74 % 0.0 mm
23:42 15.8 °C 11.2 °C 1020.2 hPa NNW 1.6 km/h 8.0 km/h 74 % 0.0 mm
23:47 15.9 °C 11.1 °C 1020.5 hPa NW 3.2 km/h 8.0 km/h 73 % 0.0 mm
23:52 16.0 °C 11.0 °C 1020.5 hPa NNW 1.6 km/h 6.4 km/h 72 % 0.0 mm
23:57 15.9 °C 11.1 °C 1020.5 hPa North 4.8 km/h 6.4 km/h 73 % 0.0 mm
Meteo18
Compliments of Weather Underground - 4 mb

Script developed by  Jim McMurry - jmcmurry@mwt.net Adapted for the template by  Wim van der Kuil - Leuven-Template.eu

You find our weather info also at:

European Weather Network

Weather Underground

Equipment we use:

Weather-station
Davis Vue

Weather-program
Meteohub

Weather-server
Raspberry PI 2 B+

Provider
1 and 1

Davis Vue

Meteohub

Raspberry PI 2 B+

1 and 1